CheckWX is a tool to help pilots better visualize weather data.  It is not intended as a substitute for an official pre-flight weather briefing.

04:36:18 UTC

KGHG METAR
Marshfield Municipal - George Harlow Field Airport
Marshfield, Massachusetts, USA
Current

21 mins ago

KGHG 140415Z AUTO 12007KT 6SM BR OVC009 09/09 A3012 RMK AO2
Observed
Dec-14 @ 04:15 UTC
Wind
  • 120° at 7 KTS
Visibility
6 SM
Flight Rules
IFR
Conditions
Mist
Cloud Levels
  • Overcast at 900' AGL
Temperature
C / 48°F
Dewpoint
C / 48°F
Humidity
100%
Altimeter
30.12" Hg
Pressure
1020.02 hPa
Previous

41 mins ago

KGHG 140355Z AUTO VRB04KT 7SM BKN011 OVC019 09/09 A3014 RMK AO2
Observed
Dec-14 @ 03:55 UTC
Wind
  • Variable at 4 KTS
Visibility
7 SM
Flight Rules
MVFR
Cloud Levels
  • Broken at 1,100' AGL
  • Overcast at 1,900' AGL
Temperature
C / 48°F
Dewpoint
C / 48°F
Humidity
100%
Altimeter
30.14" Hg
Pressure
1020.62 hPa
Previous

1 hour ago

KGHG 140335Z AUTO 11004KT 8SM SCT012 OVC019 08/08 A3015 RMK AO2
Observed
Dec-14 @ 03:35 UTC
Wind
  • 110° at 4 KTS
Visibility
8 SM
Flight Rules
MVFR
Cloud Levels
  • Scattered at 1,200' AGL
  • Overcast at 1,900' AGL
Temperature
C / 46°F
Dewpoint
C / 46°F
Humidity
100%
Altimeter
30.15" Hg
Pressure
1021.02 hPa